Terminal Aerodrome Forecast
Issued by NWS Cleveland, OH

Current Version | Previous Version | Text Only | Print | Product List | Glossary On
Versions: 1 2 3 4 5 6 7 8 9 10 11 12 13 14 15 16 17 18 19
000
FTUS41 KCLE 012300 RRA
TAFMFD
TAF
KMFD 012341Z 0200/0224 13012KT 3SM -RASNPL OVC006
     FM020600 31012G22KT 2SM -SN BLSN OVC008
     FM021300 33015G25KT 4SM BLSN OVC010
     FM021800 33012G22KT P6SM -SHSN OVC015
     FM022300 33010KT P6SM SCT015=

USA.gov is the U.S. government's official web portal to all federal, state and local government web resources and services.